sensor_id;sensor_type;location;lat;lon;timestamp;P1;P2;P0
83036;PMS1003;73029;43.592;1.458;2023-12-28T00:01:21;11.67;11.33;6.00
83036;PMS1003;73029;43.592;1.458;2023-12-28T00:03:47;9.67;9.67;7.00
83036;PMS1003;73029;43.592;1.458;2023-12-28T00:06:13;10.67;8.67;7.00
83036;PMS1003;73029;43.592;1.458;2023-12-28T00:08:38;7.33;6.33;5.00
83036;PMS1003;73029;43.592;1.458;2023-12-28T00:11:04;10.00;6.00;4.33
83036;PMS1003;73029;43.592;1.458;2023-12-28T00:13:29;11.67;8.00;7.00
83036;PMS1003;73029;43.592;1.458;2023-12-28T00:15:54;11.33;9.00;6.00
83036;PMS1003;73029;43.592;1.458;2023-12-28T00:18:20;9.33;9.00;6.67
83036;PMS1003;73029;43.592;1.458;2023-12-28T00:20:45;10.00;9.33;6.00
83036;PMS1003;73029;43.592;1.458;2023-12-28T00:23:11;12.00;11.00;6.00
83036;PMS1003;73029;43.592;1.458;2023-12-28T00:25:36;8.67;8.00;5.00
83036;PMS1003;73029;43.592;1.458;2023-12-28T00:28:01;11.67;11.67;7.00
83036;PMS1003;73029;43.592;1.458;2023-12-28T00:30:27;19.67;15.33;11.00
83036;PMS1003;73029;43.592;1.458;2023-12-28T00:32:52;27.67;25.33;18.00
83036;PMS1003;73029;43.592;1.458;2023-12-28T00:35:18;28.00;25.67;19.33
83036;PMS1003;73029;43.592;1.458;2023-12-28T00:37:43;23.67;23.67;18.33
83036;PMS1003;73029;43.592;1.458;2023-12-28T00:40:09;20.67;18.33;13.00
83036;PMS1003;73029;43.592;1.458;2023-12-28T00:42:35;22.33;20.33;15.00
83036;PMS1003;73029;43.592;1.458;2023-12-28T00:45:00;23.33;21.00;14.33
83036;PMS1003;73029;43.592;1.458;2023-12-28T00:47:25;13.00;13.00;9.67
83036;PMS1003;73029;43.592;1.458;2023-12-28T00:49:51;11.33;10.67;8.67
83036;PMS1003;73029;43.592;1.458;2023-12-28T00:52:16;7.00;7.00;5.00
83036;PMS1003;73029;43.592;1.458;2023-12-28T00:54:41;9.67;9.00;6.00
83036;PMS1003;73029;43.592;1.458;2023-12-28T00:57:07;9.00;7.33;4.33
83036;PMS1003;73029;43.592;1.458;2023-12-28T00:59:32;8.33;8.33;6.33
83036;PMS1003;73029;43.592;1.458;2023-12-28T01:01:58;9.33;5.33;3.33
83036;PMS1003;73029;43.592;1.458;2023-12-28T01:04:23;5.00;5.00;3.33
83036;PMS1003;73029;43.592;1.458;2023-12-28T01:06:49;6.33;6.33;4.00
83036;PMS1003;73029;43.592;1.458;2023-12-28T01:09:14;9.67;6.00;5.00
83036;PMS1003;73029;43.592;1.458;2023-12-28T01:11:40;7.33;7.33;6.00
83036;PMS1003;73029;43.592;1.458;2023-12-28T01:14:05;9.33;6.00;4.00
83036;PMS1003;73029;43.592;1.458;2023-12-28T01:16:31;7.67;5.00;4.33
83036;PMS1003;73029;43.592;1.458;2023-12-28T01:18:56;5.00;5.00;4.00
83036;PMS1003;73029;43.592;1.458;2023-12-28T01:21:21;4.33;4.33;4.00
83036;PMS1003;73029;43.592;1.458;2023-12-28T01:23:47;9.00;5.33;3.67
83036;PMS1003;73029;43.592;1.458;2023-12-28T01:26:15;5.33;5.00;4.33
83036;PMS1003;73029;43.592;1.458;2023-12-28T01:28:42;7.00;6.33;5.00
83036;PMS1003;73029;43.592;1.458;2023-12-28T01:31:07;6.67;6.67;5.33
83036;PMS1003;73029;43.592;1.458;2023-12-28T01:33:33;6.33;5.00;4.00
83036;PMS1003;73029;43.592;1.458;2023-12-28T01:35:59;10.67;6.33;5.00
83036;PMS1003;73029;43.592;1.458;2023-12-28T01:38:24;8.33;8.33;5.67
83036;PMS1003;73029;43.592;1.458;2023-12-28T01:40:50;6.33;6.33;4.00
83036;PMS1003;73029;43.592;1.458;2023-12-28T01:43:15;6.00;4.67;3.67
83036;PMS1003;73029;43.592;1.458;2023-12-28T01:45:40;8.00;8.00;5.00
83036;PMS1003;73029;43.592;1.458;2023-12-28T01:48:06;7.00;7.00;5.33
83036;PMS1003;73029;43.592;1.458;2023-12-28T01:50:32;6.00;6.00;5.00
83036;PMS1003;73029;43.592;1.458;2023-12-28T01:52:58;6.33;5.00;4.00
83036;PMS1003;73029;43.592;1.458;2023-12-28T01:55:26;5.67;5.67;4.67
83036;PMS1003;73029;43.592;1.458;2023-12-28T01:57:52;9.33;8.33;6.00
83036;PMS1003;73029;43.592;1.458;2023-12-28T02:00:21;6.00;6.00;4.33
83036;PMS1003;73029;43.592;1.458;2023-12-28T02:02:47;7.00;7.00;4.33
83036;PMS1003;73029;43.592;1.458;2023-12-28T02:05:13;10.67;7.33;4.67
83036;PMS1003;73029;43.592;1.458;2023-12-28T02:07:39;6.33;4.00;4.00
83036;PMS1003;73029;43.592;1.458;2023-12-28T02:10:05;9.00;8.00;5.00
83036;PMS1003;73029;43.592;1.458;2023-12-28T02:12:31;8.00;8.00;6.00
83036;PMS1003;73029;43.592;1.458;2023-12-28T02:14:57;8.67;8.33;5.00
83036;PMS1003;73029;43.592;1.458;2023-12-28T02:17:26;11.00;9.67;6.67
83036;PMS1003;73029;43.592;1.458;2023-12-28T02:19:55;10.67;9.67;6.33
83036;PMS1003;73029;43.592;1.458;2023-12-28T02:22:24;9.33;8.00;5.67
83036;PMS1003;73029;43.592;1.458;2023-12-28T02:27:35;9.00;9.00;8.00
83036;PMS1003;73029;43.592;1.458;2023-12-28T02:30:03;8.67;8.67;7.67
83036;PMS1003;73029;43.592;1.458;2023-12-28T02:32:37;11.00;10.00;6.33
83036;PMS1003;73029;43.592;1.458;2023-12-28T02:37:53;9.00;9.00;6.00
83036;PMS1003;73029;43.592;1.458;2023-12-28T02:40:23;12.00;10.00;6.67
83036;PMS1003;73029;43.592;1.458;2023-12-28T02:42:50;10.67;9.67;6.33
83036;PMS1003;73029;43.592;1.458;2023-12-28T02:45:15;13.67;10.33;8.33
83036;PMS1003;73029;43.592;1.458;2023-12-28T02:47:42;12.00;12.00;9.00
83036;PMS1003;73029;43.592;1.458;2023-12-28T02:50:09;16.00;13.33;8.00
83036;PMS1003;73029;43.592;1.458;2023-12-28T02:52:34;6.67;6.67;5.00
83036;PMS1003;73029;43.592;1.458;2023-12-28T02:55:00;10.00;9.00;7.00
83036;PMS1003;73029;43.592;1.458;2023-12-28T02:57:25;9.67;8.33;7.00
83036;PMS1003;73029;43.592;1.458;2023-12-28T02:59:51;9.00;9.00;7.00
83036;PMS1003;73029;43.592;1.458;2023-12-28T03:02:16;7.00;7.00;5.00
83036;PMS1003;73029;43.592;1.458;2023-12-28T03:04:41;10.00;9.00;6.00
83036;PMS1003;73029;43.592;1.458;2023-12-28T03:07:07;8.33;8.33;5.00
83036;PMS1003;73029;43.592;1.458;2023-12-28T03:09:33;11.00;10.00;7.00
83036;PMS1003;73029;43.592;1.458;2023-12-28T03:11:59;11.67;9.67;8.00
83036;PMS1003;73029;43.592;1.458;2023-12-28T03:14:25;10.00;9.33;7.00
83036;PMS1003;73029;43.592;1.458;2023-12-28T03:16:51;9.67;7.00;5.67
83036;PMS1003;73029;43.592;1.458;2023-12-28T03:19:16;6.67;6.00;6.00
83036;PMS1003;73029;43.592;1.458;2023-12-28T03:21:42;7.33;7.33;5.67
83036;PMS1003;73029;43.592;1.458;2023-12-28T03:24:08;10.50;9.00;5.00
83036;PMS1003;73029;43.592;1.458;2023-12-28T03:26:37;8.00;6.33;5.00
83036;PMS1003;73029;43.592;1.458;2023-12-28T03:29:05;8.67;8.67;7.33
83036;PMS1003;73029;43.592;1.458;2023-12-28T03:31:30;7.33;7.33;5.00
83036;PMS1003;73029;43.592;1.458;2023-12-28T03:33:56;10.00;8.33;6.00
83036;PMS1003;73029;43.592;1.458;2023-12-28T03:36:21;10.33;9.00;6.33
83036;PMS1003;73029;43.592;1.458;2023-12-28T03:38:48;11.00;9.00;6.00
83036;PMS1003;73029;43.592;1.458;2023-12-28T03:41:17;9.00;9.00;7.33
83036;PMS1003;73029;43.592;1.458;2023-12-28T03:43:43;5.67;4.67;3.67
83036;PMS1003;73029;43.592;1.458;2023-12-28T03:46:09;9.33;7.33;5.67
83036;PMS1003;73029;43.592;1.458;2023-12-28T03:48:35;7.33;6.33;5.00
83036;PMS1003;73029;43.592;1.458;2023-12-28T03:51:01;9.00;9.00;7.33
83036;PMS1003;73029;43.592;1.458;2023-12-28T03:53:27;7.00;7.00;4.67
83036;PMS1003;73029;43.592;1.458;2023-12-28T03:55:52;6.00;5.00;4.00
83036;PMS1003;73029;43.592;1.458;2023-12-28T03:58:18;7.67;7.67;5.00
83036;PMS1003;73029;43.592;1.458;2023-12-28T04:00:43;8.00;6.33;5.00
83036;PMS1003;73029;43.592;1.458;2023-12-28T04:03:08;5.67;5.67;4.67
83036;PMS1003;73029;43.592;1.458;2023-12-28T04:05:34;7.33;6.33;5.00
83036;PMS1003;73029;43.592;1.458;2023-12-28T04:07:59;8.00;6.67;4.67
83036;PMS1003;73029;43.592;1.458;2023-12-28T04:10:29;6.00;6.00;5.00
83036;PMS1003;73029;43.592;1.458;2023-12-28T04:12:58;9.33;8.00;6.33
83036;PMS1003;73029;43.592;1.458;2023-12-28T04:15:25;5.67;5.67;5.00
83036;PMS1003;73029;43.592;1.458;2023-12-28T04:17:51;7.50;5.00;4.00
83036;PMS1003;73029;43.592;1.458;2023-12-28T04:20:16;7.67;7.00;5.00
83036;PMS1003;73029;43.592;1.458;2023-12-28T04:22:42;7.67;7.67;6.00
83036;PMS1003;73029;43.592;1.458;2023-12-28T04:25:10;5.00;5.00;2.67
83036;PMS1003;73029;43.592;1.458;2023-12-28T04:27:37;8.00;8.00;6.33
83036;PMS1003;73029;43.592;1.458;2023-12-28T04:30:03;5.00;5.00;4.00
83036;PMS1003;73029;43.592;1.458;2023-12-28T04:32:30;9.00;4.33;4.00
83036;PMS1003;73029;43.592;1.458;2023-12-28T04:34:57;4.00;4.00;4.00
83036;PMS1003;73029;43.592;1.458;2023-12-28T04:37:23;7.67;7.67;6.33
83036;PMS1003;73029;43.592;1.458;2023-12-28T04:39:48;8.33;5.00;4.00
83036;PMS1003;73029;43.592;1.458;2023-12-28T04:42:13;4.67;4.67;4.00
83036;PMS1003;73029;43.592;1.458;2023-12-28T04:44:39;5.00;5.00;4.00
83036;PMS1003;73029;43.592;1.458;2023-12-28T04:47:04;8.00;6.00;4.00
83036;PMS1003;73029;43.592;1.458;2023-12-28T04:49:30;5.00;5.00;4.00
83036;PMS1003;73029;43.592;1.458;2023-12-28T04:51:56;6.33;4.33;3.67
83036;PMS1003;73029;43.592;1.458;2023-12-28T04:54:22;6.00;6.00;3.33
83036;PMS1003;73029;43.592;1.458;2023-12-28T04:56:47;6.67;6.67;4.67
83036;PMS1003;73029;43.592;1.458;2023-12-28T04:59:13;6.00;6.00;3.00
83036;PMS1003;73029;43.592;1.458;2023-12-28T05:01:42;7.67;6.00;4.00
83036;PMS1003;73029;43.592;1.458;2023-12-28T05:04:08;6.00;6.00;4.67
83036;PMS1003;73029;43.592;1.458;2023-12-28T05:06:33;5.33;5.00;4.00
83036;PMS1003;73029;43.592;1.458;2023-12-28T05:08:59;5.00;5.00;4.00
83036;PMS1003;73029;43.592;1.458;2023-12-28T05:11:25;5.00;5.00;4.00
83036;PMS1003;73029;43.592;1.458;2023-12-28T05:13:50;5.67;5.67;4.00
83036;PMS1003;73029;43.592;1.458;2023-12-28T05:16:15;4.00;4.00;3.00
83036;PMS1003;73029;43.592;1.458;2023-12-28T05:18:41;9.67;6.00;5.00
83036;PMS1003;73029;43.592;1.458;2023-12-28T05:21:06;5.33;5.33;3.00
83036;PMS1003;73029;43.592;1.458;2023-12-28T05:23:32;3.33;3.33;3.00
83036;PMS1003;73029;43.592;1.458;2023-12-28T05:25:57;5.33;4.00;3.00
83036;PMS1003;73029;43.592;1.458;2023-12-28T05:28:22;5.33;5.33;4.00
83036;PMS1003;73029;43.592;1.458;2023-12-28T05:30:48;6.00;4.00;3.00
83036;PMS1003;73029;43.592;1.458;2023-12-28T05:33:13;6.33;4.00;3.00
83036;PMS1003;73029;43.592;1.458;2023-12-28T05:35:38;4.00;4.00;4.00
83036;PMS1003;73029;43.592;1.458;2023-12-28T05:38:04;4.33;4.33;3.00
83036;PMS1003;73029;43.592;1.458;2023-12-28T05:40:29;5.00;5.00;4.00
83036;PMS1003;73029;43.592;1.458;2023-12-28T05:42:55;4.00;4.00;3.33
83036;PMS1003;73029;43.592;1.458;2023-12-28T05:45:20;6.67;6.67;4.00
83036;PMS1003;73029;43.592;1.458;2023-12-28T05:47:46;5.33;4.33;3.33
83036;PMS1003;73029;43.592;1.458;2023-12-28T05:50:11;5.33;3.00;2.67
83036;PMS1003;73029;43.592;1.458;2023-12-28T05:52:37;4.00;4.00;3.33
83036;PMS1003;73029;43.592;1.458;2023-12-28T05:55:03;3.67;3.67;3.67
83036;PMS1003;73029;43.592;1.458;2023-12-28T05:57:29;5.67;5.00;3.67
83036;PMS1003;73029;43.592;1.458;2023-12-28T05:59:56;8.00;6.00;6.00
83036;PMS1003;73029;43.592;1.458;2023-12-28T06:02:22;7.33;7.33;5.33
83036;PMS1003;73029;43.592;1.458;2023-12-28T06:04:47;7.33;5.67;4.33
83036;PMS1003;73029;43.592;1.458;2023-12-28T06:07:13;7.00;5.67;5.00
83036;PMS1003;73029;43.592;1.458;2023-12-28T06:09:38;4.33;4.33;3.33
83036;PMS1003;73029;43.592;1.458;2023-12-28T06:12:04;4.00;4.00;3.00
83036;PMS1003;73029;43.592;1.458;2023-12-28T06:14:30;6.00;5.00;4.00
83036;PMS1003;73029;43.592;1.458;2023-12-28T06:16:56;3.67;3.67;2.67
83036;PMS1003;73029;43.592;1.458;2023-12-28T06:19:21;4.67;3.67;3.00
83036;PMS1003;73029;43.592;1.458;2023-12-28T06:21:47;5.00;5.00;4.00
83036;PMS1003;73029;43.592;1.458;2023-12-28T06:24:15;7.67;6.00;4.00
83036;PMS1003;73029;43.592;1.458;2023-12-28T06:26:41;4.33;4.33;3.00
83036;PMS1003;73029;43.592;1.458;2023-12-28T06:29:07;4.33;4.00;4.00
83036;PMS1003;73029;43.592;1.458;2023-12-28T06:31:34;6.67;4.33;3.67
83036;PMS1003;73029;43.592;1.458;2023-12-28T06:34:01;2.00;2.00;1.00
83036;PMS1003;73029;43.592;1.458;2023-12-28T06:36:31;4.00;4.00;3.67
83036;PMS1003;73029;43.592;1.458;2023-12-28T06:38:57;6.00;5.00;4.00
83036;PMS1003;73029;43.592;1.458;2023-12-28T06:41:26;7.00;5.00;4.00
83036;PMS1003;73029;43.592;1.458;2023-12-28T06:43:52;5.00;5.00;4.00
83036;PMS1003;73029;43.592;1.458;2023-12-28T06:46:18;4.67;4.33;4.00
83036;PMS1003;73029;43.592;1.458;2023-12-28T06:48:43;3.00;3.00;3.00
83036;PMS1003;73029;43.592;1.458;2023-12-28T06:51:10;3.00;3.00;2.00
83036;PMS1003;73029;43.592;1.458;2023-12-28T06:53:40;5.00;5.00;5.00
83036;PMS1003;73029;43.592;1.458;2023-12-28T06:56:06;5.00;4.00;3.00
83036;PMS1003;73029;43.592;1.458;2023-12-28T06:58:32;4.00;4.00;3.00
83036;PMS1003;73029;43.592;1.458;2023-12-28T07:00:57;6.67;5.33;4.00
83036;PMS1003;73029;43.592;1.458;2023-12-28T07:03:23;4.00;4.00;3.67
83036;PMS1003;73029;43.592;1.458;2023-12-28T07:05:50;5.00;5.00;3.67
83036;PMS1003;73029;43.592;1.458;2023-12-28T07:08:16;4.33;4.00;3.00
83036;PMS1003;73029;43.592;1.458;2023-12-28T07:10:41;6.00;6.00;3.67
83036;PMS1003;73029;43.592;1.458;2023-12-28T07:13:07;7.33;4.33;4.00
83036;PMS1003;73029;43.592;1.458;2023-12-28T07:15:32;3.67;3.67;3.00
83036;PMS1003;73029;43.592;1.458;2023-12-28T07:17:58;5.67;5.00;3.00
83036;PMS1003;73029;43.592;1.458;2023-12-28T07:20:23;6.00;5.00;3.33
83036;PMS1003;73029;43.592;1.458;2023-12-28T07:22:49;6.00;6.00;4.00
83036;PMS1003;73029;43.592;1.458;2023-12-28T07:25:14;4.00;4.00;3.67
83036;PMS1003;73029;43.592;1.458;2023-12-28T07:27:40;5.00;5.00;4.00
83036;PMS1003;73029;43.592;1.458;2023-12-28T07:30:06;4.00;4.00;3.00
83036;PMS1003;73029;43.592;1.458;2023-12-28T07:32:32;5.00;5.00;4.00
83036;PMS1003;73029;43.592;1.458;2023-12-28T07:34:57;5.00;5.00;4.00
83036;PMS1003;73029;43.592;1.458;2023-12-28T07:37:24;4.00;4.00;3.33
83036;PMS1003;73029;43.592;1.458;2023-12-28T07:39:49;2.33;2.33;2.00
83036;PMS1003;73029;43.592;1.458;2023-12-28T07:42:15;4.33;4.00;3.67
83036;PMS1003;73029;43.592;1.458;2023-12-28T07:44:40;3.00;3.00;3.00
83036;PMS1003;73029;43.592;1.458;2023-12-28T07:47:06;4.67;4.67;3.67
83036;PMS1003;73029;43.592;1.458;2023-12-28T07:49:31;4.00;4.00;3.00
83036;PMS1003;73029;43.592;1.458;2023-12-28T07:51:57;5.00;5.00;4.00
83036;PMS1003;73029;43.592;1.458;2023-12-28T07:54:22;6.67;6.67;4.00
83036;PMS1003;73029;43.592;1.458;2023-12-28T07:56:48;4.00;3.67;2.67
83036;PMS1003;73029;43.592;1.458;2023-12-28T07:59:13;6.00;6.00;4.00
83036;PMS1003;73029;43.592;1.458;2023-12-28T08:01:38;6.00;6.00;4.67
83036;PMS1003;73029;43.592;1.458;2023-12-28T08:04:04;7.00;5.00;4.00
83036;PMS1003;73029;43.592;1.458;2023-12-28T08:06:29;6.00;6.00;5.00
83036;PMS1003;73029;43.592;1.458;2023-12-28T08:08:58;8.33;5.00;4.67
83036;PMS1003;73029;43.592;1.458;2023-12-28T08:11:26;5.33;5.00;3.67
83036;PMS1003;73029;43.592;1.458;2023-12-28T08:13:52;6.67;5.33;3.00
83036;PMS1003;73029;43.592;1.458;2023-12-28T08:16:17;3.00;3.00;2.00
83036;PMS1003;73029;43.592;1.458;2023-12-28T08:18:42;8.33;7.00;5.00
83036;PMS1003;73029;43.592;1.458;2023-12-28T08:21:08;6.00;5.00;4.00
83036;PMS1003;73029;43.592;1.458;2023-12-28T08:23:33;8.00;6.33;5.00
83036;PMS1003;73029;43.592;1.458;2023-12-28T08:25:59;5.33;5.33;4.00
83036;PMS1003;73029;43.592;1.458;2023-12-28T08:28:24;4.00;4.00;4.00
83036;PMS1003;73029;43.592;1.458;2023-12-28T08:30:50;4.00;4.00;3.33
83036;PMS1003;73029;43.592;1.458;2023-12-28T08:33:15;5.00;5.00;4.00
83036;PMS1003;73029;43.592;1.458;2023-12-28T08:35:41;5.00;5.00;4.00
83036;PMS1003;73029;43.592;1.458;2023-12-28T08:38:06;6.00;5.00;3.00
83036;PMS1003;73029;43.592;1.458;2023-12-28T08:40:32;8.33;7.67;5.00
83036;PMS1003;73029;43.592;1.458;2023-12-28T08:42:57;4.00;4.00;2.33
83036;PMS1003;73029;43.592;1.458;2023-12-28T08:45:23;4.67;4.67;4.00
83036;PMS1003;73029;43.592;1.458;2023-12-28T08:47:48;5.00;4.00;3.67
83036;PMS1003;73029;43.592;1.458;2023-12-28T08:50:14;4.67;4.67;4.00
83036;PMS1003;73029;43.592;1.458;2023-12-28T08:52:42;4.00;4.00;3.67
83036;PMS1003;73029;43.592;1.458;2023-12-28T08:55:07;5.67;5.67;4.00
83036;PMS1003;73029;43.592;1.458;2023-12-28T08:57:33;6.67;6.67;5.00
83036;PMS1003;73029;43.592;1.458;2023-12-28T08:59:59;7.67;6.00;4.67
83036;PMS1003;73029;43.592;1.458;2023-12-28T09:02:27;5.33;3.67;3.00
83036;PMS1003;73029;43.592;1.458;2023-12-28T09:04:53;3.67;3.33;2.00
83036;PMS1003;73029;43.592;1.458;2023-12-28T09:07:19;7.00;5.00;3.33
83036;PMS1003;73029;43.592;1.458;2023-12-28T09:09:45;7.67;7.67;5.00
83036;PMS1003;73029;43.592;1.458;2023-12-28T09:12:11;5.00;5.00;4.00
83036;PMS1003;73029;43.592;1.458;2023-12-28T09:14:36;7.67;5.00;4.00
83036;PMS1003;73029;43.592;1.458;2023-12-28T09:17:02;9.00;7.33;5.00
83036;PMS1003;73029;43.592;1.458;2023-12-28T09:19:28;7.33;5.33;4.00
83036;PMS1003;73029;43.592;1.458;2023-12-28T09:21:53;7.00;6.00;5.00
83036;PMS1003;73029;43.592;1.458;2023-12-28T09:24:18;5.33;5.33;5.00
83036;PMS1003;73029;43.592;1.458;2023-12-28T09:26:44;6.00;5.00;4.00
83036;PMS1003;73029;43.592;1.458;2023-12-28T09:29:10;7.00;6.00;4.00
83036;PMS1003;73029;43.592;1.458;2023-12-28T09:31:36;7.00;7.00;5.67
83036;PMS1003;73029;43.592;1.458;2023-12-28T09:34:02;8.00;8.00;5.00
83036;PMS1003;73029;43.592;1.458;2023-12-28T09:36:29;9.67;7.00;5.00
83036;PMS1003;73029;43.592;1.458;2023-12-28T09:38:55;8.33;6.00;5.00
83036;PMS1003;73029;43.592;1.458;2023-12-28T09:41:21;6.33;6.33;4.67
83036;PMS1003;73029;43.592;1.458;2023-12-28T09:46:30;5.67;5.00;4.33
83036;PMS1003;73029;43.592;1.458;2023-12-28T09:48:57;9.33;9.00;7.00
83036;PMS1003;73029;43.592;1.458;2023-12-28T09:51:24;6.00;6.00;4.33
83036;PMS1003;73029;43.592;1.458;2023-12-28T09:53:50;6.00;6.00;5.00
83036;PMS1003;73029;43.592;1.458;2023-12-28T09:56:16;7.00;7.00;5.00
83036;PMS1003;73029;43.592;1.458;2023-12-28T09:58:42;9.67;7.33;5.33
83036;PMS1003;73029;43.592;1.458;2023-12-28T10:01:09;11.00;9.00;7.00
83036;PMS1003;73029;43.592;1.458;2023-12-28T10:03:35;7.33;7.33;6.00
83036;PMS1003;73029;43.592;1.458;2023-12-28T10:06:01;8.67;8.00;7.00
83036;PMS1003;73029;43.592;1.458;2023-12-28T10:08:27;6.00;6.00;4.67
83036;PMS1003;73029;43.592;1.458;2023-12-28T10:10:52;10.33;7.33;5.00
83036;PMS1003;73029;43.592;1.458;2023-12-28T10:13:22;12.00;9.00;8.00
83036;PMS1003;73029;43.592;1.458;2023-12-28T10:15:47;10.33;9.00;5.67
83036;PMS1003;73029;43.592;1.458;2023-12-28T10:18:16;9.33;7.00;6.00
83036;PMS1003;73029;43.592;1.458;2023-12-28T10:20:43;8.67;7.67;4.67
83036;PMS1003;73029;43.592;1.458;2023-12-28T10:23:16;8.33;6.33;5.00
83036;PMS1003;73029;43.592;1.458;2023-12-28T10:25:43;7.00;7.00;6.00
83036;PMS1003;73029;43.592;1.458;2023-12-28T10:28:09;10.00;7.00;6.00
83036;PMS1003;73029;43.592;1.458;2023-12-28T10:30:37;8.00;8.00;6.00
83036;PMS1003;73029;43.592;1.458;2023-12-28T10:33:04;9.00;7.00;6.00
83036;PMS1003;73029;43.592;1.458;2023-12-28T10:35:31;6.33;6.00;5.00
83036;PMS1003;73029;43.592;1.458;2023-12-28T10:37:56;9.00;9.00;7.00
83036;PMS1003;73029;43.592;1.458;2023-12-28T10:40:25;11.00;9.67;7.00
83036;PMS1003;73029;43.592;1.458;2023-12-28T10:42:52;8.33;8.33;6.00
83036;PMS1003;73029;43.592;1.458;2023-12-28T10:45:24;10.67;10.67;8.00
83036;PMS1003;73029;43.592;1.458;2023-12-28T10:48:01;8.00;6.67;5.00
83036;PMS1003;73029;43.592;1.458;2023-12-28T11:01:04;8.00;8.00;5.33
83036;PMS1003;73029;43.592;1.458;2023-12-28T11:03:34;12.00;11.00;9.67
83036;PMS1003;73029;43.592;1.458;2023-12-28T11:06:04;14.33;14.00;9.00
83036;PMS1003;73029;43.592;1.458;2023-12-28T11:08:32;13.33;12.00;10.67
83036;PMS1003;73029;43.592;1.458;2023-12-28T11:10:57;11.00;11.00;9.00
83036;PMS1003;73029;43.592;1.458;2023-12-28T11:13:26;12.67;11.67;7.33
83036;PMS1003;73029;43.592;1.458;2023-12-28T11:15:54;16.00;14.00;9.00
83036;PMS1003;73029;43.592;1.458;2023-12-28T11:18:21;10.33;9.33;8.00
83036;PMS1003;73029;43.592;1.458;2023-12-28T11:20:48;11.33;11.33;9.00
83036;PMS1003;73029;43.592;1.458;2023-12-28T11:23:15;13.00;13.00;9.67
83036;PMS1003;73029;43.592;1.458;2023-12-28T11:25:40;10.00;9.33;7.00
83036;PMS1003;73029;43.592;1.458;2023-12-28T11:28:12;16.00;16.00;10.00
83036;PMS1003;73029;43.592;1.458;2023-12-28T11:30:41;15.33;13.00;11.33
83036;PMS1003;73029;43.592;1.458;2023-12-28T11:33:07;13.67;12.33;8.33
83036;PMS1003;73029;43.592;1.458;2023-12-28T11:35:38;13.00;13.00;8.33
83036;PMS1003;73029;43.592;1.458;2023-12-28T11:38:06;9.00;9.00;7.00
83036;PMS1003;73029;43.592;1.458;2023-12-28T11:40:40;9.00;9.00;7.00
83036;PMS1003;73029;43.592;1.458;2023-12-28T11:43:18;10.00;10.00;8.00
83036;PMS1003;73029;43.592;1.458;2023-12-28T11:45:54;12.33;12.33;8.67
83036;PMS1003;73029;43.592;1.458;2023-12-28T11:50:56;10.33;10.33;9.00
83036;PMS1003;73029;43.592;1.458;2023-12-28T11:53:24;9.67;9.67;8.33
83036;PMS1003;73029;43.592;1.458;2023-12-28T11:55:50;12.67;12.67;9.67
83036;PMS1003;73029;43.592;1.458;2023-12-28T11:58:16;15.67;14.00;8.00
83036;PMS1003;73029;43.592;1.458;2023-12-28T12:00:43;12.00;11.00;8.67
83036;PMS1003;73029;43.592;1.458;2023-12-28T12:03:11;13.00;11.33;8.33
83036;PMS1003;73029;43.592;1.458;2023-12-28T12:05:37;11.00;11.00;8.00
83036;PMS1003;73029;43.592;1.458;2023-12-28T12:08:04;12.67;11.00;8.33
83036;PMS1003;73029;43.592;1.458;2023-12-28T12:10:30;12.67;10.00;7.00
83036;PMS1003;73029;43.592;1.458;2023-12-28T12:12:57;13.00;11.00;9.00
83036;PMS1003;73029;43.592;1.458;2023-12-28T12:15:22;13.33;13.33;9.00
83036;PMS1003;73029;43.592;1.458;2023-12-28T12:17:48;9.67;7.00;5.67
83036;PMS1003;73029;43.592;1.458;2023-12-28T12:20:14;8.67;8.67;6.00
83036;PMS1003;73029;43.592;1.458;2023-12-28T12:22:40;9.33;9.00;7.33
83036;PMS1003;73029;43.592;1.458;2023-12-28T12:25:05;13.67;12.33;9.00
83036;PMS1003;73029;43.592;1.458;2023-12-28T12:27:32;10.00;8.67;7.00
83036;PMS1003;73029;43.592;1.458;2023-12-28T12:29:58;9.67;9.33;7.00
83036;PMS1003;73029;43.592;1.458;2023-12-28T12:32:23;10.00;9.00;8.00
83036;PMS1003;73029;43.592;1.458;2023-12-28T12:34:49;12.00;12.00;8.33
83036;PMS1003;73029;43.592;1.458;2023-12-28T12:37:16;10.00;10.00;7.67
83036;PMS1003;73029;43.592;1.458;2023-12-28T12:39:42;9.67;8.33;8.00
83036;PMS1003;73029;43.592;1.458;2023-12-28T12:42:12;13.33;13.00;9.00
83036;PMS1003;73029;43.592;1.458;2023-12-28T12:44:41;8.67;8.67;6.33
83036;PMS1003;73029;43.592;1.458;2023-12-28T12:47:07;14.00;12.33;9.33
83036;PMS1003;73029;43.592;1.458;2023-12-28T12:49:32;9.67;9.67;7.00
83036;PMS1003;73029;43.592;1.458;2023-12-28T12:51:58;10.67;10.67;8.33
83036;PMS1003;73029;43.592;1.458;2023-12-28T12:54:23;14.00;13.67;11.00
83036;PMS1003;73029;43.592;1.458;2023-12-28T12:56:49;2.00;2.00;1.00
83036;PMS1003;73029;43.592;1.458;2023-12-28T12:59:15;10.00;8.33;8.33
83036;PMS1003;73029;43.592;1.458;2023-12-28T13:01:45;7.33;6.00;5.67
83036;PMS1003;73029;43.592;1.458;2023-12-28T13:04:13;11.33;11.00;7.67
83036;PMS1003;73029;43.592;1.458;2023-12-28T13:06:41;10.00;8.00;6.67
83036;PMS1003;73029;43.592;1.458;2023-12-28T13:09:06;10.00;10.00;8.00
83036;PMS1003;73029;43.592;1.458;2023-12-28T13:11:33;9.67;8.00;7.00
83036;PMS1003;73029;43.592;1.458;2023-12-28T13:13:59;11.67;10.00;9.00
83036;PMS1003;73029;43.592;1.458;2023-12-28T13:16:24;11.00;11.00;9.00
83036;PMS1003;73029;43.592;1.458;2023-12-28T13:18:50;11.67;10.33;7.33
83036;PMS1003;73029;43.592;1.458;2023-12-28T13:21:15;10.67;9.67;7.67
83036;PMS1003;73029;43.592;1.458;2023-12-28T13:23:41;13.00;12.00;9.00
83036;PMS1003;73029;43.592;1.458;2023-12-28T13:26:06;13.67;13.67;9.67
83036;PMS1003;73029;43.592;1.458;2023-12-28T13:28:32;10.00;8.33;6.67
83036;PMS1003;73029;43.592;1.458;2023-12-28T13:30:58;13.00;13.00;9.33
83036;PMS1003;73029;43.592;1.458;2023-12-28T13:33:23;9.00;8.33;7.33
83036;PMS1003;73029;43.592;1.458;2023-12-28T13:35:49;10.67;10.67;8.67
83036;PMS1003;73029;43.592;1.458;2023-12-28T13:38:15;11.00;11.00;9.00
83036;PMS1003;73029;43.592;1.458;2023-12-28T13:40:40;14.67;11.67;8.67
83036;PMS1003;73029;43.592;1.458;2023-12-28T13:43:06;13.00;12.67;8.67
83036;PMS1003;73029;43.592;1.458;2023-12-28T13:45:31;9.33;9.33;8.00
83036;PMS1003;73029;43.592;1.458;2023-12-28T13:47:56;14.00;11.00;8.00
83036;PMS1003;73029;43.592;1.458;2023-12-28T13:50:22;13.00;11.67;9.00
83036;PMS1003;73029;43.592;1.458;2023-12-28T13:52:47;12.67;12.67;8.67
83036;PMS1003;73029;43.592;1.458;2023-12-28T13:55:13;11.00;11.00;9.33
83036;PMS1003;73029;43.592;1.458;2023-12-28T13:57:38;11.00;11.00;8.00
83036;PMS1003;73029;43.592;1.458;2023-12-28T14:00:04;16.00;11.67;8.00
83036;PMS1003;73029;43.592;1.458;2023-12-28T14:02:30;9.67;7.67;7.33
83036;PMS1003;73029;43.592;1.458;2023-12-28T14:04:56;10.33;9.67;6.33
83036;PMS1003;73029;43.592;1.458;2023-12-28T14:07:24;10.33;9.33;8.00
83036;PMS1003;73029;43.592;1.458;2023-12-28T14:09:50;10.00;10.00;6.67
83036;PMS1003;73029;43.592;1.458;2023-12-28T14:12:16;11.00;11.00;9.33
83036;PMS1003;73029;43.592;1.458;2023-12-28T14:14:42;11.67;10.00;8.33
83036;PMS1003;73029;43.592;1.458;2023-12-28T14:17:07;11.67;9.67;7.00
83036;PMS1003;73029;43.592;1.458;2023-12-28T14:19:33;11.00;10.33;8.00
83036;PMS1003;73029;43.592;1.458;2023-12-28T14:21:59;10.67;9.00;7.67
83036;PMS1003;73029;43.592;1.458;2023-12-28T14:24:25;8.00;6.33;5.00
83036;PMS1003;73029;43.592;1.458;2023-12-28T14:26:52;9.00;9.00;7.00
83036;PMS1003;73029;43.592;1.458;2023-12-28T14:29:19;8.33;8.33;6.33
83036;PMS1003;73029;43.592;1.458;2023-12-28T14:31:48;13.33;8.33;7.00